Time;durP1;ratioP1;P1;durP2;ratioP2;P2;SDS_P1;SDS_P2;PMS_P1;PMS_P2;Temp;Humidity;BMP_temperature;BMP_pressure;BME280_temperature;BME280_humidity;BME280_pressure;Samples;Min_cycle;Max_cycle;Signal;HPM_P1;HPM_P2
2020/12/08 00:01:35;;;;;;;31.80;16.90;;;1.40;99.90;;;;;;5052410;28;20210;-66
2020/12/08 00:04:01;;;;;;;32.27;17.63;;;1.40;99.90;;;;;;5052982;28;20178;-66
2020/12/08 00:06:27;;;;;;;32.63;16.20;;;1.50;99.90;;;;;;5052830;28;20183;-65
2020/12/08 00:08:52;;;;;;;28.47;17.43;;;1.50;99.90;;;;;;5053258;28;20171;-65
2020/12/08 00:11:18;;;;;;;37.30;17.93;;;1.60;99.90;;;;;;5051949;28;20213;-66
2020/12/08 00:13:46;;;;;;;38.13;17.67;;;1.70;99.90;;;;;;5052542;28;20194;-66
2020/12/08 00:16:13;;;;;;;38.83;18.23;;;1.70;99.90;;;;;;5052855;28;20183;-66
2020/12/08 00:18:39;;;;;;;33.87;16.27;;;1.70;99.90;;;;;;5052611;28;20206;-66
2020/12/08 00:21:06;;;;;;;36.37;17.90;;;1.70;99.90;;;;;;5052173;28;20179;-65
2020/12/08 00:23:31;;;;;;;35.07;17.13;;;1.70;99.90;;;;;;5052628;28;20199;-66
2020/12/08 00:25:57;;;;;;;32.97;15.63;;;1.70;99.90;;;;;;5051048;28;20182;-66
2020/12/08 00:28:23;;;;;;;32.13;17.10;;;1.60;99.90;;;;;;5052631;28;20175;-66
2020/12/08 00:30:49;;;;;;;32.97;16.50;;;1.40;99.90;;;;;;5051613;28;20175;-67
2020/12/08 00:33:15;;;;;;;28.97;14.70;;;1.40;99.90;;;;;;5052289;28;20191;-65
2020/12/08 00:35:41;;;;;;;31.33;16.53;;;1.30;99.90;;;;;;5052208;28;20174;-65
2020/12/08 00:38:06;;;;;;;34.20;16.23;;;1.20;99.90;;;;;;5053205;28;20578;-66
2020/12/08 00:40:32;;;;;;;28.03;16.30;;;1.00;99.90;;;;;;5051916;28;20249;-66
2020/12/08 00:42:57;;;;;;;38.60;16.17;;;1.00;99.90;;;;;;5052267;28;20269;-66
2020/12/08 00:45:23;;;;;;;32.40;15.20;;;1.00;99.90;;;;;;5052084;28;20233;-65
2020/12/08 00:47:49;;;;;;;32.70;15.17;;;0.90;99.90;;;;;;5052190;28;20538;-65
2020/12/08 00:50:15;;;;;;;39.00;18.00;;;0.90;99.90;;;;;;5051773;28;20705;-66
2020/12/08 00:52:40;;;;;;;35.10;16.00;;;0.90;99.90;;;;;;5052225;28;20214;-65
2020/12/08 00:55:07;;;;;;;34.60;17.30;;;0.90;99.90;;;;;;5051894;28;20205;-66
2020/12/08 00:57:33;;;;;;;33.43;16.63;;;1.00;99.90;;;;;;5051863;28;20588;-66
2020/12/08 00:59:59;;;;;;;35.57;16.63;;;1.00;99.90;;;;;;5051428;28;20175;-66
2020/12/08 01:02:25;;;;;;;38.23;16.83;;;1.10;99.90;;;;;;5050956;28;20197;-66
2020/12/08 01:04:51;;;;;;;38.17;16.93;;;1.20;99.90;;;;;;5052557;28;20175;-65
2020/12/08 01:07:16;;;;;;;33.30;15.40;;;1.20;99.90;;;;;;5051635;28;20663;-67
2020/12/08 01:09:42;;;;;;;32.70;17.10;;;1.30;99.90;;;;;;5051636;28;20178;-65
2020/12/08 01:12:08;;;;;;;32.97;16.47;;;1.30;99.90;;;;;;5051149;28;20202;-66
2020/12/08 01:14:34;;;;;;;32.43;15.60;;;1.30;99.90;;;;;;5051298;28;20679;-65
2020/12/08 01:17:01;;;;;;;35.73;17.10;;;1.40;99.90;;;;;;5051476;28;20182;-65
2020/12/08 01:19:27;;;;;;;31.03;15.20;;;1.40;99.90;;;;;;5051570;28;20175;-65
2020/12/08 01:21:53;;;;;;;33.30;16.87;;;1.40;99.90;;;;;;5050849;28;20206;-65
2020/12/08 01:24:19;;;;;;;37.93;18.43;;;1.40;99.90;;;;;;5051680;28;20178;-66
2020/12/08 01:26:46;;;;;;;38.47;18.87;;;1.50;99.90;;;;;;5051386;28;20182;-66
2020/12/08 01:29:12;;;;;;;43.30;18.10;;;1.60;99.90;;;;;;5051525;28;20670;-65
2020/12/08 01:31:38;;;;;;;34.80;19.33;;;1.70;99.90;;;;;;5050532;28;20203;-65
2020/12/08 01:34:03;;;;;;;38.83;20.23;;;1.80;99.90;;;;;;5051411;28;20206;-66
2020/12/08 01:36:29;;;;;;;39.20;19.13;;;1.90;99.90;;;;;;5051193;28;20228;-66
2020/12/08 01:38:54;;;;;;;37.70;19.20;;;2.00;99.90;;;;;;5051351;28;20179;-65
2020/12/08 01:41:20;;;;;;;37.43;19.10;;;2.10;99.90;;;;;;5050445;28;20179;-65
2020/12/08 01:43:50;;;;;;;38.57;19.70;;;2.20;99.90;;;;;;5050962;28;20205;-66
2020/12/08 01:46:18;;;;;;;35.00;18.03;;;2.20;99.90;;;;;;5051333;28;20648;-66
2020/12/08 01:48:46;;;;;;;41.33;19.07;;;2.20;99.90;;;;;;5051371;28;20205;-66
2020/12/08 01:51:13;;;;;;;39.57;17.30;;;2.20;99.90;;;;;;5050474;28;20222;-65
2020/12/08 01:53:39;;;;;;;36.97;17.07;;;2.10;99.90;;;;;;5050990;28;20218;-66
2020/12/08 01:56:04;;;;;;;33.67;16.97;;;2.00;99.90;;;;;;5050907;28;20174;-66
2020/12/08 01:58:30;;;;;;;36.60;17.30;;;1.90;99.90;;;;;;5050452;28;20178;-66
2020/12/08 02:00:56;;;;;;;34.23;19.33;;;1.90;99.90;;;;;;5050689;28;20175;-65
2020/12/08 02:03:21;;;;;;;30.77;16.83;;;1.80;99.90;;;;;;5050662;28;20190;-66
2020/12/08 02:05:47;;;;;;;40.77;16.57;;;1.80;99.90;;;;;;5051197;28;20175;-65
2020/12/08 02:08:13;;;;;;;43.40;21.37;;;1.70;99.90;;;;;;5051001;28;20163;-65
2020/12/08 02:10:38;;;;;;;44.80;21.30;;;1.60;99.90;;;;;;5050434;28;20240;-66
2020/12/08 02:13:10;;;;;;;38.70;19.40;;;1.60;99.90;;;;;;5052353;28;20281;-65
2020/12/08 02:15:36;;;;;;;38.73;18.40;;;1.60;99.90;;;;;;5054738;28;20267;-65
2020/12/08 02:18:02;;;;;;;39.70;19.20;;;1.70;99.90;;;;;;5054904;28;20588;-65
2020/12/08 02:20:27;;;;;;;43.13;20.63;;;1.70;99.90;;;;;;5054454;28;20186;-65
2020/12/08 02:23:02;;;;;;;41.70;19.00;;;1.80;99.90;;;;;;5054242;28;20199;-66
2020/12/08 02:25:28;;;;;;;38.03;20.13;;;1.90;99.90;;;;;;5034949;28;20679;-65
2020/12/08 02:27:53;;;;;;;44.83;20.27;;;2.00;99.90;;;;;;5034828;28;20180;-65
2020/12/08 02:30:19;;;;;;;44.47;21.47;;;2.10;99.90;;;;;;5053836;28;20610;-66
2020/12/08 02:32:44;;;;;;;45.47;18.93;;;2.20;99.90;;;;;;5054752;28;20191;-65
2020/12/08 02:35:10;;;;;;;38.80;19.53;;;2.30;99.90;;;;;;5054439;28;20214;-65
2020/12/08 02:37:36;;;;;;;36.87;19.90;;;2.40;99.90;;;;;;5054736;28;20174;-66
2020/12/08 02:40:04;;;;;;;36.33;18.50;;;2.40;99.90;;;;;;5054059;28;20186;-65
2020/12/08 02:42:30;;;;;;;46.57;20.63;;;2.40;99.90;;;;;;5054287;28;20202;-65
2020/12/08 02:44:56;;;;;;;41.73;19.10;;;2.50;99.90;;;;;;5054261;28;20179;-66
2020/12/08 02:47:22;;;;;;;46.53;21.53;;;2.50;99.90;;;;;;5054062;28;20548;-66
2020/12/08 02:49:47;;;;;;;41.63;20.80;;;2.60;99.90;;;;;;5054108;28;20187;-65
2020/12/08 02:52:13;;;;;;;39.00;21.07;;;2.60;99.90;;;;;;5053499;28;20283;-66
2020/12/08 02:54:39;;;;;;;39.20;22.60;;;2.70;99.90;;;;;;5054264;28;20206;-65
2020/12/08 02:57:07;;;;;;;43.43;21.00;;;2.70;99.90;;;;;;5052825;28;20175;-66
2020/12/08 02:59:37;;;;;;;47.70;20.57;;;2.70;99.90;;;;;;5052758;28;20655;-65
2020/12/08 03:02:02;;;;;;;39.63;19.17;;;2.70;99.90;;;;;;5053649;28;20544;-65
2020/12/08 03:04:28;;;;;;;39.10;18.87;;;2.70;99.90;;;;;;5054004;28;20182;-66
2020/12/08 03:06:53;;;;;;;46.63;19.47;;;2.70;99.90;;;;;;5053871;28;20182;-66
2020/12/08 03:09:19;;;;;;;39.97;19.87;;;2.90;99.90;;;;;;5053836;28;20178;-65
2020/12/08 03:11:45;;;;;;;43.27;19.93;;;2.90;99.90;;;;;;5053489;28;20206;-66
2020/12/08 03:14:11;;;;;;;34.97;19.17;;;3.00;99.90;;;;;;5053708;28;20206;-66
2020/12/08 03:16:36;;;;;;;42.43;19.80;;;2.90;99.90;;;;;;5053773;28;20183;-65
2020/12/08 03:19:02;;;;;;;41.73;18.57;;;2.90;99.90;;;;;;5053599;28;20178;-66
2020/12/08 03:21:35;;;;;;;37.10;17.73;;;2.90;99.90;;;;;;5052960;28;20221;-66
2020/12/08 03:24:00;;;;;;;41.63;18.63;;;2.80;99.90;;;;;;5053293;28;20167;-66
2020/12/08 03:26:26;;;;;;;42.13;19.07;;;2.80;99.90;;;;;;5052859;28;20541;-66
2020/12/08 03:28:52;;;;;;;40.07;19.57;;;2.80;99.90;;;;;;5053515;28;20236;-65
2020/12/08 03:31:18;;;;;;;38.37;18.93;;;2.70;99.90;;;;;;5053305;28;20679;-65
2020/12/08 03:33:43;;;;;;;40.53;20.00;;;2.80;99.90;;;;;;5053524;28;20201;-65
2020/12/08 03:36:13;;;;;;;43.53;21.83;;;2.80;99.90;;;;;;5053391;28;20175;-66
2020/12/08 03:38:41;;;;;;;45.23;21.00;;;2.80;99.90;;;;;;5053575;28;20171;-66
2020/12/08 03:41:08;;;;;;;42.97;19.47;;;2.80;99.90;;;;;;5052729;28;20194;-66
2020/12/08 03:43:34;;;;;;;43.93;20.17;;;2.80;99.90;;;;;;5053480;28;20182;-66
2020/12/08 03:45:59;;;;;;;47.50;22.13;;;2.80;99.90;;;;;;5052761;28;20224;-66
2020/12/08 03:48:26;;;;;;;48.20;20.50;;;2.80;99.90;;;;;;5053246;28;20262;-66
2020/12/08 03:50:52;;;;;;;53.80;21.07;;;2.80;99.90;;;;;;5052442;28;20175;-66
2020/12/08 03:53:17;;;;;;;40.73;21.17;;;2.80;99.90;;;;;;5053188;28;20256;-66
2020/12/08 03:55:43;;;;;;;47.03;21.67;;;2.80;99.90;;;;;;5052426;28;20311;-66
2020/12/08 03:58:09;;;;;;;46.80;21.87;;;2.90;99.90;;;;;;5052386;28;20178;-66
2020/12/08 04:00:34;;;;;;;51.53;22.07;;;2.90;99.90;;;;;;5052607;28;20171;-66
2020/12/08 04:03:00;;;;;;;47.07;22.00;;;2.90;99.90;;;;;;5052717;28;20234;-65
2020/12/08 04:05:26;;;;;;;48.83;21.77;;;2.90;99.90;;;;;;5052699;28;20194;-65
2020/12/08 04:07:51;;;;;;;46.73;21.43;;;2.80;99.90;;;;;;5053013;28;20171;-65
2020/12/08 04:10:17;;;;;;;52.90;22.50;;;2.90;99.90;;;;;;5052452;28;20640;-65
2020/12/08 04:12:43;;;;;;;47.90;21.70;;;2.90;99.90;;;;;;5052850;28;20461;-65
2020/12/08 04:15:08;;;;;;;52.83;21.73;;;2.90;99.90;;;;;;5052360;28;20212;-65
2020/12/08 04:17:34;;;;;;;47.77;21.20;;;2.90;99.90;;;;;;5052714;28;20171;-65
2020/12/08 04:19:59;;;;;;;55.03;23.30;;;2.90;99.90;;;;;;5052265;28;20178;-65
2020/12/08 04:22:25;;;;;;;52.97;22.60;;;3.00;99.90;;;;;;5052124;28;20741;-65
2020/12/08 04:24:51;;;;;;;59.37;23.37;;;2.90;99.90;;;;;;5051070;28;20182;-65
2020/12/08 04:27:16;;;;;;;50.93;24.20;;;2.90;99.90;;;;;;5052249;28;20319;-66
2020/12/08 04:29:42;;;;;;;49.80;23.60;;;2.90;99.90;;;;;;5052446;28;20175;-65
2020/12/08 04:32:07;;;;;;;61.27;25.67;;;2.90;99.90;;;;;;5051980;28;20620;-65
2020/12/08 04:34:33;;;;;;;60.03;23.93;;;2.90;99.90;;;;;;5052527;28;20198;-65
2020/12/08 04:36:59;;;;;;;63.57;25.57;;;2.90;99.90;;;;;;5052086;28;20249;-65
2020/12/08 04:39:26;;;;;;;56.53;24.53;;;2.90;99.90;;;;;;5052140;28;20163;-65
2020/12/08 04:41:56;;;;;;;59.03;24.60;;;2.90;99.90;;;;;;5051823;28;20198;-65
2020/12/08 04:44:22;;;;;;;58.03;25.70;;;2.80;99.90;;;;;;5052068;28;20186;-66
2020/12/08 04:46:57;;;;;;;61.17;24.70;;;2.80;99.90;;;;;;5051847;28;20232;-65
2020/12/08 04:49:24;;;;;;;51.37;24.23;;;2.70;99.90;;;;;;5052173;28;20181;-66
2020/12/08 04:51:50;;;;;;;70.60;25.03;;;2.70;99.90;;;;;;5051841;28;20198;-65
2020/12/08 04:54:16;;;;;;;60.30;25.03;;;2.80;99.90;;;;;;5051107;28;20206;-65
2020/12/08 04:56:47;;;;;;;71.20;27.20;;;2.90;99.90;;;;;;5050872;28;20167;-65
2020/12/08 04:59:20;;;;;;;68.00;26.03;;;3.00;99.90;;;;;;5052189;28;20171;-65
2020/12/08 05:01:46;;;;;;;60.97;25.50;;;3.10;99.90;;;;;;5051353;28;20241;-65
2020/12/08 05:04:11;;;;;;;61.47;25.37;;;3.10;99.90;;;;;;5052106;28;20179;-65
2020/12/08 05:06:37;;;;;;;68.40;24.50;;;3.20;99.90;;;;;;5051779;28;20263;-65
2020/12/08 05:09:03;;;;;;;58.70;21.83;;;3.30;99.90;;;;;;5051971;28;20222;-65
2020/12/08 05:11:29;;;;;;;58.77;24.03;;;3.30;99.90;;;;;;5051220;28;20603;-65
2020/12/08 05:14:03;;;;;;;60.03;25.17;;;3.30;99.90;;;;;;5051494;28;20226;-65
2020/12/08 05:16:29;;;;;;;49.70;23.57;;;3.40;99.90;;;;;;5051825;28;20205;-65
2020/12/08 05:19:08;;;;;;;58.33;26.50;;;3.50;99.90;;;;;;5051572;28;20175;-65
2020/12/08 05:21:34;;;;;;;53.50;24.57;;;3.50;99.90;;;;;;5050813;28;20166;-66
2020/12/08 05:24:00;;;;;;;46.67;24.70;;;3.50;99.90;;;;;;5051612;28;20217;-66
2020/12/08 05:26:28;;;;;;;46.67;22.43;;;3.50;99.90;;;;;;5051554;28;20523;-65
2020/12/08 05:29:02;;;;;;;51.13;22.70;;;3.50;99.90;;;;;;5050743;28;20221;-65
2020/12/08 05:31:28;;;;;;;52.07;25.83;;;3.50;99.90;;;;;;5051003;28;20197;-65
2020/12/08 05:34:04;;;;;;;56.37;24.97;;;3.50;99.90;;;;;;5051108;28;20198;-65
2020/12/08 05:36:32;;;;;;;55.17;23.50;;;3.50;99.90;;;;;;5051424;28;20174;-65
2020/12/08 05:39:00;;;;;;;53.70;23.80;;;3.50;99.90;;;;;;5051541;28;20174;-65
2020/12/08 05:41:30;;;;;;;54.23;24.47;;;3.50;99.90;;;;;;5051050;28;20171;-65
2020/12/08 05:44:04;;;;;;;58.47;25.10;;;3.60;99.90;;;;;;5051476;28;20317;-65
2020/12/08 05:46:40;;;;;;;54.17;23.93;;;3.50;99.90;;;;;;5051202;28;20174;-65
2020/12/08 05:49:06;;;;;;;59.40;26.27;;;3.60;99.90;;;;;;5050556;28;20531;-65
2020/12/08 05:51:38;;;;;;;61.93;24.87;;;3.60;99.90;;;;;;5050106;28;20178;-65
2020/12/08 05:54:04;;;;;;;52.53;23.50;;;3.60;99.90;;;;;;5051071;28;20668;-65
2020/12/08 05:56:34;;;;;;;50.33;24.23;;;3.60;99.90;;;;;;5051410;28;20177;-65
2020/12/08 05:58:59;;;;;;;56.23;23.30;;;3.60;99.90;;;;;;5051105;28;20579;-65
2020/12/08 06:01:25;;;;;;;54.33;24.50;;;3.60;99.90;;;;;;5050796;28;20236;-65
2020/12/08 06:03:55;;;;;;;62.67;24.73;;;3.60;99.90;;;;;;5051072;28;20203;-65
2020/12/08 06:06:20;;;;;;;55.70;24.77;;;3.60;99.90;;;;;;5051004;28;20286;-65
2020/12/08 06:08:47;;;;;;;51.33;24.77;;;3.60;99.90;;;;;;5051234;28;20250;-65
2020/12/08 06:11:14;;;;;;;52.83;24.37;;;3.60;99.90;;;;;;5050036;28;20258;-65
2020/12/08 06:13:41;;;;;;;56.43;25.33;;;3.60;99.90;;;;;;5050988;28;20598;-65
2020/12/08 06:16:20;;;;;;;53.70;25.20;;;3.60;99.90;;;;;;5050769;28;20571;-65
2020/12/08 06:18:47;;;;;;;56.97;24.57;;;3.60;99.90;;;;;;5050870;28;20207;-64
2020/12/08 06:21:28;;;;;;;56.60;25.60;;;3.60;99.90;;;;;;5050616;28;20175;-65
2020/12/08 06:23:55;;;;;;;52.00;25.23;;;3.70;99.90;;;;;;5042587;28;20186;-65
2020/12/08 06:26:25;;;;;;;57.20;26.60;;;3.70;99.90;;;;;;5051076;28;20197;-65
2020/12/08 06:28:52;;;;;;;50.00;24.07;;;3.70;99.90;;;;;;5051041;28;20261;-65
2020/12/08 06:31:18;;;;;;;46.53;21.27;;;3.70;99.90;;;;;;5050431;28;20179;-64
2020/12/08 06:33:49;;;;;;;42.37;22.63;;;3.70;99.90;;;;;;5050794;28;20667;-65
2020/12/08 06:36:23;;;;;;;49.17;23.23;;;3.70;99.90;;;;;;5050802;28;20175;-65
2020/12/08 06:38:56;;;;;;;45.90;22.37;;;3.60;99.90;;;;;;5050958;28;20174;-65
2020/12/08 06:41:30;;;;;;;40.03;21.43;;;3.60;99.90;;;;;;5050350;28;20189;-65
2020/12/08 06:43:56;;;;;;;46.27;24.33;;;3.60;99.90;;;;;;5050770;28;20178;-65
2020/12/08 06:46:22;;;;;;;44.10;20.67;;;3.70;99.90;;;;;;5050291;28;20178;-66
2020/12/08 06:49:02;;;;;;;38.70;20.40;;;3.70;99.90;;;;;;5050845;28;20641;-65
2020/12/08 06:51:27;;;;;;;38.50;19.83;;;3.70;99.90;;;;;;5050001;28;20183;-65
2020/12/08 06:53:53;;;;;;;35.27;17.60;;;3.70;99.90;;;;;;5048855;28;20524;-65
2020/12/08 06:56:32;;;;;;;33.70;16.83;;;3.70;99.90;;;;;;5048629;28;20587;-66
2020/12/08 06:58:58;;;;;;;29.13;14.83;;;3.70;99.90;;;;;;5052764;28;20651;-65
2020/12/08 07:01:24;;;;;;;25.83;16.50;;;3.80;99.90;;;;;;5051484;28;20174;-65
2020/12/08 07:03:52;;;;;;;22.97;15.43;;;3.80;99.90;;;;;;5053949;28;20246;-65
2020/12/08 07:06:19;;;;;;;19.17;12.87;;;3.80;99.90;;;;;;5054288;28;20179;-65
2020/12/08 07:08:49;;;;;;;23.37;13.37;;;3.70;99.90;;;;;;5054048;28;20194;-65
2020/12/08 07:11:19;;;;;;;20.40;13.83;;;3.80;99.90;;;;;;5053403;28;20178;-65
2020/12/08 07:13:55;;;;;;;18.93;13.47;;;3.80;99.90;;;;;;5053243;28;20171;-65
2020/12/08 07:16:23;;;;;;;20.50;13.40;;;3.80;99.90;;;;;;5042073;28;20175;-65
2020/12/08 07:18:49;;;;;;;19.83;12.73;;;3.90;99.90;;;;;;5053510;28;20171;-65
2020/12/08 07:21:15;;;;;;;19.67;12.57;;;3.90;99.90;;;;;;5053228;28;20546;-65
2020/12/08 07:23:41;;;;;;;16.33;11.47;;;3.90;99.90;;;;;;5053876;28;20163;-65
2020/12/08 07:26:08;;;;;;;17.17;12.17;;;3.90;99.90;;;;;;5053369;28;20171;-65
2020/12/08 07:28:34;;;;;;;19.20;11.53;;;3.90;99.90;;;;;;5053598;28;20170;-65
2020/12/08 07:31:00;;;;;;;15.60;10.87;;;3.90;99.90;;;;;;5053089;28;20214;-65
2020/12/08 07:33:31;;;;;;;15.80;9.97;;;3.90;99.90;;;;;;5053687;28;20195;-65
2020/12/08 07:35:57;;;;;;;11.27;9.67;;;3.90;99.90;;;;;;5053201;28;20361;-65
2020/12/08 07:38:23;;;;;;;14.33;10.30;;;3.90;99.90;;;;;;5053670;28;20179;-65
2020/12/08 07:40:48;;;;;;;14.83;10.73;;;3.90;99.90;;;;;;5052834;28;20261;-65
2020/12/08 07:43:14;;;;;;;13.27;9.90;;;3.90;99.90;;;;;;5052868;28;20656;-65
2020/12/08 07:45:44;;;;;;;14.20;9.93;;;3.90;99.90;;;;;;5052971;28;20177;-65
2020/12/08 07:48:19;;;;;;;13.70;10.03;;;4.00;99.90;;;;;;5053655;28;20221;-65
2020/12/08 07:50:44;;;;;;;14.03;9.80;;;4.00;99.90;;;;;;5052483;28;20652;-65
2020/12/08 07:53:10;;;;;;;13.27;9.73;;;4.00;99.90;;;;;;5052915;28;20217;-65
2020/12/08 07:55:41;;;;;;;13.87;10.20;;;4.00;99.90;;;;;;5053098;28;20333;-65
2020/12/08 07:58:07;;;;;;;11.10;9.00;;;4.00;99.90;;;;;;5053207;28;20262;-65
2020/12/08 08:00:32;;;;;;;14.03;10.37;;;4.00;99.90;;;;;;5052633;28;20171;-65
2020/12/08 08:02:58;;;;;;;11.83;9.10;;;4.00;99.90;;;;;;5051583;28;20198;-65
2020/12/08 08:05:24;;;;;;;15.20;9.97;;;4.00;99.90;;;;;;5052874;28;20182;-65
2020/12/08 08:07:49;;;;;;;10.97;8.70;;;4.00;99.90;;;;;;5052680;28;20175;-65
2020/12/08 08:10:15;;;;;;;13.53;9.63;;;4.10;99.90;;;;;;5052006;28;20222;-65
2020/12/08 08:12:41;;;;;;;14.47;10.37;;;4.10;99.90;;;;;;5052523;28;20331;-65
2020/12/08 08:15:07;;;;;;;15.47;11.17;;;4.10;99.90;;;;;;5052777;28;20210;-65
2020/12/08 08:17:34;;;;;;;15.93;10.33;;;4.00;99.90;;;;;;5052922;28;20175;-65
2020/12/08 08:19:59;;;;;;;16.07;10.67;;;4.10;99.90;;;;;;5052175;28;20185;-65
2020/12/08 08:22:25;;;;;;;14.17;9.90;;;4.10;99.90;;;;;;5050618;28;20195;-65
2020/12/08 08:24:51;;;;;;;19.57;13.10;;;4.10;99.90;;;;;;5052325;28;20545;-65
2020/12/08 08:27:16;;;;;;;20.67;13.23;;;4.10;99.90;;;;;;5052428;28;20648;-65
2020/12/08 08:29:42;;;;;;;16.17;10.73;;;4.10;99.90;;;;;;5052376;28;20669;-65
2020/12/08 08:32:08;;;;;;;14.40;10.97;;;4.20;99.90;;;;;;5051659;28;20675;-65
2020/12/08 08:34:33;;;;;;;15.60;10.93;;;4.20;99.90;;;;;;5052296;28;20738;-65
2020/12/08 08:36:59;;;;;;;15.43;11.73;;;4.20;99.90;;;;;;5052199;28;20213;-65
2020/12/08 08:39:25;;;;;;;16.73;11.97;;;4.20;99.90;;;;;;5052425;28;20175;-64
2020/12/08 08:41:52;;;;;;;17.50;12.47;;;4.20;99.90;;;;;;5051376;28;20250;-65
2020/12/08 08:44:18;;;;;;;18.13;12.87;;;4.20;99.90;;;;;;5052564;28;20652;-65
2020/12/08 08:46:44;;;;;;;20.80;14.60;;;4.20;99.90;;;;;;5052139;28;20189;-65
2020/12/08 08:49:14;;;;;;;21.33;12.97;;;4.20;99.90;;;;;;5051137;28;20605;-65
2020/12/08 08:51:41;;;;;;;19.63;12.57;;;4.30;99.90;;;;;;5051372;28;20297;-65
2020/12/08 08:54:07;;;;;;;17.53;13.33;;;4.20;99.90;;;;;;5052094;28;20554;-66
2020/12/08 08:56:32;;;;;;;17.27;12.20;;;4.40;99.90;;;;;;5050977;28;20193;-66
2020/12/08 08:58:58;;;;;;;17.93;13.07;;;4.50;99.90;;;;;;5051346;28;20281;-66
2020/12/08 09:01:23;;;;;;;17.17;12.30;;;4.50;99.90;;;;;;5050080;28;20174;-66
2020/12/08 09:03:49;;;;;;;18.67;12.53;;;4.60;99.90;;;;;;5051295;28;20217;-66
2020/12/08 09:06:15;;;;;;;17.67;12.57;;;4.60;99.90;;;;;;5051869;28;20255;-66
2020/12/08 09:08:40;;;;;;;20.47;12.87;;;4.70;99.90;;;;;;5051893;28;20600;-65
2020/12/08 09:11:06;;;;;;;16.80;12.13;;;4.70;99.90;;;;;;5051108;28;20609;-66
2020/12/08 09:13:32;;;;;;;16.80;11.93;;;4.80;99.90;;;;;;5051397;28;20595;-66
2020/12/08 09:15:58;;;;;;;15.60;11.13;;;4.80;99.90;;;;;;5051426;28;20231;-65
2020/12/08 09:18:26;;;;;;;17.57;12.53;;;5.00;99.90;;;;;;5051358;28;20583;-65
2020/12/08 09:20:52;;;;;;;17.40;12.57;;;5.00;99.90;;;;;;5050979;28;20536;-66
2020/12/08 09:23:17;;;;;;;17.70;12.70;;;5.00;99.90;;;;;;5050505;28;20217;-65
2020/12/08 09:25:43;;;;;;;15.73;11.73;;;5.10;99.90;;;;;;5051456;28;20166;-65
2020/12/08 09:28:08;;;;;;;16.93;12.13;;;5.20;99.90;;;;;;5049805;28;20554;-65
2020/12/08 09:30:34;;;;;;;17.97;11.93;;;5.20;99.90;;;;;;5051027;28;20545;-65
2020/12/08 09:33:00;;;;;;;16.20;11.60;;;5.30;99.90;;;;;;5050623;28;20203;-65
2020/12/08 09:35:25;;;;;;;14.43;11.87;;;5.40;99.90;;;;;;5051349;28;20210;-66
2020/12/08 09:37:51;;;;;;;15.80;11.90;;;5.40;99.90;;;;;;5051196;28;20551;-65
2020/12/08 09:40:16;;;;;;;16.37;11.60;;;5.50;99.90;;;;;;5051065;28;20225;-66
2020/12/08 09:42:44;;;;;;;16.50;11.70;;;5.50;99.90;;;;;;5050930;28;20201;-65
2020/12/08 09:45:11;;;;;;;16.83;11.50;;;5.50;99.90;;;;;;5051358;28;20178;-65
2020/12/08 09:47:37;;;;;;;15.97;11.40;;;5.50;99.90;;;;;;5051158;28;20185;-65
2020/12/08 09:50:04;;;;;;;14.67;11.03;;;5.60;99.90;;;;;;5050227;28;20190;-65
2020/12/08 09:52:30;;;;;;;14.63;11.20;;;5.70;99.90;;;;;;5050966;28;20253;-65
2020/12/08 09:54:56;;;;;;;15.13;11.60;;;5.60;99.90;;;;;;5050729;28;20242;-65
2020/12/08 09:57:23;;;;;;;14.90;10.80;;;5.60;99.90;;;;;;5050547;28;20221;-65
2020/12/08 09:59:49;;;;;;;13.73;10.23;;;5.70;99.90;;;;;;5049803;28;20209;-65
2020/12/08 10:02:15;;;;;;;15.47;11.63;;;5.80;99.90;;;;;;5050544;28;20226;-65
2020/12/08 10:04:40;;;;;;;16.20;12.30;;;5.90;99.90;;;;;;5051309;28;20179;-65
2020/12/08 10:07:07;;;;;;;16.70;11.43;;;5.90;99.90;;;;;;5050968;28;20194;-65
2020/12/08 10:09:32;;;;;;;15.17;11.70;;;6.10;99.90;;;;;;5051301;28;20225;-66
2020/12/08 10:11:58;;;;;;;13.70;10.63;;;6.10;99.90;;;;;;5050167;28;20672;-65
2020/12/08 10:14:24;;;;;;;14.43;11.20;;;6.10;99.90;;;;;;5051108;28;20202;-66
2020/12/08 10:16:50;;;;;;;14.47;11.07;;;6.30;99.90;;;;;;5050397;28;20263;-65
2020/12/08 10:19:16;;;;;;;13.40;10.20;;;6.20;99.90;;;;;;5050815;28;20222;-65
2020/12/08 10:21:41;;;;;;;16.97;11.57;;;6.30;99.90;;;;;;5050537;28;20237;-65
2020/12/08 10:24:08;;;;;;;14.63;9.83;;;6.40;99.90;;;;;;5050422;28;20721;-65
2020/12/08 10:26:34;;;;;;;16.10;11.70;;;6.40;99.90;;;;;;5051059;28;20171;-66
2020/12/08 10:28:59;;;;;;;14.33;11.00;;;6.50;99.90;;;;;;5050568;28;20183;-65
2020/12/08 10:31:26;;;;;;;14.63;10.93;;;6.60;99.90;;;;;;5050415;28;20187;-65
2020/12/08 10:33:51;;;;;;;15.10;10.93;;;6.80;99.90;;;;;;5051372;28;20178;-65
2020/12/08 10:36:17;;;;;;;15.20;11.60;;;6.90;99.90;;;;;;5054835;28;20183;-65
2020/12/08 10:38:43;;;;;;;14.60;10.27;;;7.00;99.90;;;;;;5054477;28;20248;-65
2020/12/08 10:41:08;;;;;;;12.20;9.37;;;6.90;99.90;;;;;;5054239;28;20602;-65
2020/12/08 10:43:34;;;;;;;14.73;10.97;;;6.90;99.90;;;;;;5054614;28;20666;-65
2020/12/08 10:45:59;;;;;;;12.73;10.37;;;6.80;99.90;;;;;;5053546;28;20187;-66
2020/12/08 10:48:25;;;;;;;14.07;10.83;;;6.90;99.90;;;;;;5054784;28;20174;-65
2020/12/08 10:50:51;;;;;;;16.07;10.73;;;7.00;99.90;;;;;;5053483;28;20214;-66
2020/12/08 10:53:17;;;;;;;11.80;9.57;;;7.20;99.90;;;;;;5054447;28;20213;-67
2020/12/08 10:55:42;;;;;;;14.77;10.13;;;7.20;99.90;;;;;;5054043;28;20207;-66
2020/12/08 10:58:08;;;;;;;11.37;9.90;;;7.30;99.90;;;;;;5053031;28;20177;-66
2020/12/08 11:00:33;;;;;;;13.80;10.63;;;7.30;99.90;;;;;;5053468;28;20190;-66
2020/12/08 11:03:01;;;;;;;11.30;9.60;;;7.30;99.90;;;;;;5054002;28;20203;-66
2020/12/08 11:05:26;;;;;;;11.40;9.43;;;7.20;99.90;;;;;;5053638;28;20190;-66
2020/12/08 11:07:52;;;;;;;12.80;9.70;;;7.10;99.90;;;;;;5053994;28;20232;-66
2020/12/08 11:10:18;;;;;;;10.93;9.40;;;7.20;99.90;;;;;;5053469;28;20191;-66
2020/12/08 11:12:43;;;;;;;10.77;8.77;;;7.50;99.90;;;;;;5053699;28;20668;-66
2020/12/08 11:15:09;;;;;;;12.10;8.43;;;7.70;99.90;;;;;;5053504;28;20422;-66
2020/12/08 11:17:36;;;;;;;12.90;9.47;;;7.80;99.90;;;;;;5053649;28;20194;-66
2020/12/08 11:20:04;;;;;;;12.90;8.93;;;7.60;99.90;;;;;;5053766;28;20162;-66
2020/12/08 11:22:31;;;;;;;13.07;9.53;;;7.40;99.90;;;;;;5053186;28;20214;-66
2020/12/08 11:24:57;;;;;;;13.27;10.00;;;7.30;99.90;;;;;;5053521;28;20182;-66
2020/12/08 11:27:22;;;;;;;14.90;10.13;;;7.20;99.90;;;;;;5053702;28;20190;-65
2020/12/08 11:29:48;;;;;;;12.73;10.40;;;7.20;99.90;;;;;;5053143;28;20189;-66
2020/12/08 11:32:17;;;;;;;14.70;10.97;;;7.20;99.90;;;;;;5052874;28;20209;-67
2020/12/08 11:34:44;;;;;;;12.87;9.60;;;7.20;99.90;;;;;;5053875;28;20676;-66
2020/12/08 11:37:10;;;;;;;14.73;9.40;;;7.20;99.90;;;;;;5053236;28;20183;-65
2020/12/08 11:39:36;;;;;;;12.60;9.73;;;7.20;99.90;;;;;;5053902;28;20190;-66
2020/12/08 11:42:04;;;;;;;12.33;9.50;;;7.20;99.90;;;;;;5052374;28;20664;-66
2020/12/08 11:44:30;;;;;;;11.70;9.97;;;7.20;99.90;;;;;;5053538;28;20179;-66
2020/12/08 11:46:56;;;;;;;12.97;9.50;;;7.10;99.90;;;;;;5052228;28;20182;-66
2020/12/08 11:49:21;;;;;;;15.20;10.13;;;7.00;99.90;;;;;;5053104;28;20179;-66
2020/12/08 11:51:47;;;;;;;12.73;9.77;;;6.90;99.90;;;;;;5052555;28;20242;-66
2020/12/08 11:54:13;;;;;;;12.17;9.90;;;6.70;99.90;;;;;;5052724;28;20213;-66
2020/12/08 11:56:39;;;;;;;13.80;9.43;;;6.60;99.90;;;;;;5053359;28;20198;-66
2020/12/08 11:59:05;;;;;;;13.67;9.50;;;6.50;99.90;;;;;;5052797;28;20167;-67
2020/12/08 12:01:31;;;;;;;12.53;8.93;;;6.40;99.90;;;;;;5052880;28;20258;-66
2020/12/08 12:03:56;;;;;;;13.17;9.50;;;6.40;99.90;;;;;;5052579;28;20266;-67
2020/12/08 12:06:22;;;;;;;12.63;8.97;;;6.40;99.90;;;;;;5052898;28;20183;-66
2020/12/08 12:08:48;;;;;;;10.67;8.07;;;6.40;99.90;;;;;;5052967;28;20655;-66
2020/12/08 12:11:13;;;;;;;12.20;8.57;;;6.40;99.90;;;;;;5051897;28;20186;-66
2020/12/08 12:13:39;;;;;;;13.50;9.53;;;6.50;99.90;;;;;;5052810;28;20191;-65
2020/12/08 12:16:05;;;;;;;13.03;9.03;;;6.60;99.90;;;;;;5052124;28;20279;-66
2020/12/08 12:18:30;;;;;;;10.87;8.80;;;6.60;99.90;;;;;;5052852;28;20633;-66
2020/12/08 12:20:56;;;;;;;12.07;8.67;;;6.70;99.90;;;;;;5052030;28;20194;-66
2020/12/08 12:23:21;;;;;;;11.70;8.63;;;6.70;99.90;;;;;;5052309;28;20687;-65
2020/12/08 12:25:47;;;;;;;10.70;7.80;;;6.70;99.90;;;;;;5052587;28;20182;-66
2020/12/08 12:28:13;;;;;;;10.53;8.43;;;6.60;99.90;;;;;;5052288;28;20183;-66
2020/12/08 12:30:38;;;;;;;11.80;8.43;;;6.60;99.90;;;;;;5051882;28;20183;-66
2020/12/08 12:33:04;;;;;;;11.57;8.73;;;6.70;99.90;;;;;;5052379;28;20652;-66
2020/12/08 12:35:30;;;;;;;10.47;8.00;;;6.80;99.90;;;;;;5054328;28;20210;-66